DLR46 TNCM-KIAD
Flight info
| Callsign | DLR46 |
|---|---|
| Flight time | N/A |
| Altitude | 30000 |
| Route | MODOR2 JUICE B520 STT DCT ACONY DCT DONQU DCT LNHOM/M078F300 L452 GALVN/M078F320 L452 OXANA/N0462F320 AR8 ECG DCT COUPN DCT DORRN CAVLR6 |
| Aircraft | A321/M-SDE3FGHIRWY/LB1 |
Departure
| Time | 2026-05-06 18:18 |
|---|---|
| Airport | Princess Juliana International Airport (TNCM) |
Arrival
| Time | N/A |
|---|---|
| Airport | Washington Dulles International Airport (KIAD) |
| Time | Latitude | Longitude | Altitude | Speed | Heading |
|---|---|---|---|---|---|
| 2026-05-06 17:47 | 18.04329 | -63.11361 | 21 ft | 0 kts | 351° |
| 2026-05-06 18:08 | 18.04328 | -63.11361 | 21 ft | 0 kts | 351° |
| 2026-05-06 18:09 | 18.04322 | -63.11360 | 21 ft | 2 kts | 352° |
| 2026-05-06 18:09 | 18.04306 | -63.11358 | 21 ft | 2 kts | 351° |
| 2026-05-06 18:09 | 18.04292 | -63.11356 | 21 ft | 2 kts | 352° |
| 2026-05-06 18:10 | 18.04277 | -63.11353 | 21 ft | 2 kts | 351° |
| 2026-05-06 18:10 | 18.04262 | -63.11351 | 21 ft | 2 kts | 351° |
| 2026-05-06 18:10 | 18.04252 | -63.11350 | 21 ft | 2 kts | 348° |
| 2026-05-06 18:10 | 18.04239 | -63.11342 | 21 ft | 2 kts | 314° |
| 2026-05-06 18:11 | 18.04233 | -63.11335 | 21 ft | 1 kts | 299° |
| 2026-05-06 18:11 | 18.04230 | -63.11330 | 21 ft | 1 kts | 298° |
| 2026-05-06 18:11 | 18.04230 | -63.11329 | 21 ft | 0 kts | 298° |
| 2026-05-06 18:13 | 18.04230 | -63.11330 | 21 ft | 0 kts | 297° |
| 2026-05-06 18:13 | 18.04231 | -63.11332 | 21 ft | 0 kts | 291° |
| 2026-05-06 18:13 | 18.04234 | -63.11344 | 21 ft | 3 kts | 282° |
| 2026-05-06 18:13 | 18.04232 | -63.11410 | 21 ft | 9 kts | 263° |
| 2026-05-06 18:14 | 18.04212 | -63.11483 | 21 ft | 10 kts | 242° |
| 2026-05-06 18:14 | 18.04165 | -63.11548 | 21 ft | 11 kts | 230° |
| 2026-05-06 18:14 | 18.04123 | -63.11602 | 21 ft | 0 kts | 230° |
| 2026-05-06 18:14 | 18.04122 | -63.11602 | 21 ft | 0 kts | 230° |
| 2026-05-06 18:15 | 18.04117 | -63.11608 | 21 ft | 3 kts | 230° |
| 2026-05-06 18:15 | 18.04086 | -63.11652 | 21 ft | 10 kts | 238° |
| 2026-05-06 18:15 | 18.04057 | -63.11738 | 22 ft | 13 kts | 261° |
| 2026-05-06 18:15 | 18.04044 | -63.11826 | 22 ft | 6 kts | 261° |
| 2026-05-06 18:16 | 18.04037 | -63.11872 | 22 ft | 6 kts | 259° |
| 2026-05-06 18:16 | 18.04016 | -63.11917 | 22 ft | 8 kts | 239° |
| 2026-05-06 18:16 | 18.03974 | -63.11964 | 22 ft | 9 kts | 193° |
| 2026-05-06 18:16 | 18.03946 | -63.11916 | 22 ft | 5 kts | 81° |
| 2026-05-06 18:17 | 18.03947 | -63.11905 | 22 ft | 11 kts | 81° |
| 2026-05-06 18:17 | 18.03997 | -63.11557 | 21 ft | 83 kts | 82° |
| 2026-05-06 18:17 | 18.04115 | -63.10740 | 21 ft | 142 kts | 81° |
| 2026-05-06 18:17 | 18.04282 | -63.09567 | 281 ft | 168 kts | 82° |
| 2026-05-06 18:18 | 18.04242 | -63.08382 | 893 ft | 166 kts | 114° |
| 2026-05-06 18:18 | 18.03457 | -63.07595 | 1386 ft | 177 kts | 155° |
| 2026-05-06 18:18 | 18.02138 | -63.07493 | 1863 ft | 183 kts | 180° |
| 2026-05-06 18:18 | 18.00957 | -63.07587 | 2154 ft | 186 kts | 180° |
| 2026-05-06 18:19 | 17.99512 | -63.07670 | 2398 ft | 197 kts | 178° |
| 2026-05-06 18:19 | 17.98100 | -63.07732 | 2619 ft | 209 kts | 179° |
| 2026-05-06 18:19 | 17.96604 | -63.07795 | 2847 ft | 221 kts | 179° |
| 2026-05-06 18:19 | 17.94994 | -63.07865 | 3011 ft | 238 kts | 179° |
| 2026-05-06 18:20 | 17.93287 | -63.07939 | 3274 ft | 253 kts | 180° |
| 2026-05-06 18:20 | 17.91478 | -63.08022 | 3600 ft | 264 kts | 180° |
| 2026-05-06 18:20 | 17.89618 | -63.08107 | 4169 ft | 268 kts | 180° |
| 2026-05-06 18:20 | 17.87761 | -63.08192 | 4811 ft | 269 kts | 180° |
| 2026-05-06 18:21 | 17.85902 | -63.08537 | 5356 ft | 277 kts | 202° |
| 2026-05-06 18:21 | 17.84368 | -63.09779 | 5903 ft | 284 kts | 232° |
| 2026-05-06 18:21 | 17.83549 | -63.11659 | 6512 ft | 288 kts | 260° |
| 2026-05-06 18:21 | 17.83655 | -63.13748 | 7080 ft | 291 kts | 289° |
| 2026-05-06 18:22 | 17.84672 | -63.15540 | 7653 ft | 291 kts | 317° |
| 2026-05-06 18:22 | 17.86379 | -63.16639 | 8163 ft | 290 kts | 345° |
| 2026-05-06 18:22 | 17.88289 | -63.16905 | 8709 ft | 289 kts | 357° |
| 2026-05-06 18:22 | 17.90299 | -63.17304 | 9223 ft | 294 kts | 336° |
| 2026-05-06 18:23 | 17.91938 | -63.18665 | 9707 ft | 298 kts | 304° |
| 2026-05-06 18:23 | 17.92875 | -63.20582 | 10266 ft | 298 kts | 295° |
| 2026-05-06 18:23 | 17.93756 | -63.22580 | 10580 ft | 308 kts | 295° |
| 2026-05-06 18:23 | 17.94685 | -63.24664 | 10848 ft | 321 kts | 295° |
| 2026-05-06 18:24 | 17.95650 | -63.26834 | 11059 ft | 334 kts | 295° |
| 2026-05-06 18:24 | 17.96651 | -63.29096 | 11282 ft | 346 kts | 295° |
| 2026-05-06 18:24 | 17.97676 | -63.31419 | 11525 ft | 357 kts | 295° |
| 2026-05-06 18:24 | 17.98734 | -63.33821 | 11738 ft | 368 kts | 295° |
| 2026-05-06 18:25 | 17.99813 | -63.36278 | 11946 ft | 377 kts | 295° |
| 2026-05-06 18:25 | 18.00917 | -63.38794 | 12311 ft | 381 kts | 295° |
| 2026-05-06 18:25 | 18.02035 | -63.41342 | 12770 ft | 382 kts | 295° |
| 2026-05-06 18:25 | 18.03136 | -63.43857 | 13207 ft | 383 kts | 295° |
| 2026-05-06 18:26 | 18.04244 | -63.46389 | 13628 ft | 385 kts | 295° |
| 2026-05-06 18:26 | 18.05374 | -63.48972 | 14045 ft | 386 kts | 295° |
| 2026-05-06 18:26 | 18.06494 | -63.51531 | 14431 ft | 389 kts | 295° |
| 2026-05-06 18:26 | 18.07620 | -63.54107 | 14831 ft | 390 kts | 295° |
| 2026-05-06 18:27 | 18.08753 | -63.56700 | 15219 ft | 392 kts | 295° |
| 2026-05-06 18:27 | 18.09890 | -63.59306 | 15623 ft | 394 kts | 295° |
| 2026-05-06 18:27 | 18.11028 | -63.61910 | 16028 ft | 395 kts | 296° |
| 2026-05-06 18:27 | 18.12140 | -63.64589 | 16419 ft | 398 kts | 292° |
| 2026-05-06 18:28 | 18.13010 | -63.67237 | 16793 ft | 400 kts | 287° |
| 2026-05-06 18:28 | 18.13703 | -63.70164 | 17182 ft | 403 kts | 282° |
| 2026-05-06 18:28 | 18.14219 | -63.73079 | 17561 ft | 405 kts | 281° |
| 2026-05-06 18:28 | 18.14706 | -63.75993 | 17914 ft | 407 kts | 281° |
| 2026-05-06 18:29 | 18.15190 | -63.78911 | 18256 ft | 409 kts | 281° |
| 2026-05-06 18:29 | 18.15685 | -63.81886 | 18590 ft | 411 kts | 281° |
| 2026-05-06 18:29 | 18.16174 | -63.84811 | 18889 ft | 413 kts | 281° |
| 2026-05-06 18:29 | 18.16678 | -63.87818 | 19204 ft | 415 kts | 282° |
| 2026-05-06 18:30 | 18.17131 | -63.90519 | 19469 ft | 417 kts | 281° |
| 2026-05-06 18:30 | 18.17528 | -63.92888 | 19694 ft | 419 kts | 282° |